sensor_id;sensor_type;location;lat;lon;timestamp;pressure;altitude;pressure_sealevel;temperature;humidity
63954;BME280;50128;52.094;5.232;2023-01-30T00:00:10;101599.0;;;6.87;100.0
63954;BME280;50128;52.094;5.232;2023-01-30T00:03:24;101595.0;;;7.02;100.0
63954;BME280;50128;52.094;5.232;2023-01-30T00:05:00;101601.0;;;7.01;100.0
63954;BME280;50128;52.094;5.232;2023-01-30T00:06:38;101594.0;;;7.0;100.0
63954;BME280;50128;52.094;5.232;2023-01-30T00:08:16;101603.0;;;7.11;100.0
63954;BME280;50128;52.094;5.232;2023-01-30T00:11:32;101601.0;;;7.0;100.0
63954;BME280;50128;52.094;5.232;2023-01-30T00:13:09;101603.0;;;7.04;100.0
63954;BME280;50128;52.094;5.232;2023-01-30T00:14:46;101608.0;;;7.03;100.0
63954;BME280;50128;52.094;5.232;2023-01-30T00:18:00;101598.0;;;7.11;100.0
63954;BME280;50128;52.094;5.232;2023-01-30T00:19:37;101581.0;;;7.14;100.0
63954;BME280;50128;52.094;5.232;2023-01-30T00:21:13;101580.0;;;7.21;100.0
63954;BME280;50128;52.094;5.232;2023-01-30T00:24:26;101568.0;;;7.28;100.0
63954;BME280;50128;52.094;5.232;2023-01-30T00:26:04;101577.0;;;7.3;100.0
63954;BME280;50128;52.094;5.232;2023-01-30T00:27:41;101580.0;;;7.35;100.0
63954;BME280;50128;52.094;5.232;2023-01-30T00:29:18;101573.0;;;7.36;100.0
63954;BME280;50128;52.094;5.232;2023-01-30T00:32:32;101576.0;;;7.33;100.0
63954;BME280;50128;52.094;5.232;2023-01-30T00:34:09;101568.0;;;7.36;100.0
63954;BME280;50128;52.094;5.232;2023-01-30T00:35:47;101563.0;;;7.43;100.0
63954;BME280;50128;52.094;5.232;2023-01-30T00:39:01;101558.0;;;7.46;100.0
63954;BME280;50128;52.094;5.232;2023-01-30T00:40:39;101555.0;;;7.41;100.0
63954;BME280;50128;52.094;5.232;2023-01-30T00:47:29;101528.0;;;7.4;100.0
63954;BME280;50128;52.094;5.232;2023-01-30T00:49:06;101538.0;;;7.39;100.0
63954;BME280;50128;52.094;5.232;2023-01-30T00:50:43;101533.0;;;7.42;100.0
63954;BME280;50128;52.094;5.232;2023-01-30T00:52:20;101522.0;;;7.47;100.0
63954;BME280;50128;52.094;5.232;2023-01-30T00:55:33;101526.0;;;7.43;100.0
63954;BME280;50128;52.094;5.232;2023-01-30T00:57:09;101530.0;;;7.49;100.0
63954;BME280;50128;52.094;5.232;2023-01-30T00:58:45;101530.0;;;7.57;100.0
63954;BME280;50128;52.094;5.232;2023-01-30T01:01:58;101535.0;;;7.63;100.0
63954;BME280;50128;52.094;5.232;2023-01-30T01:03:35;101528.0;;;7.61;100.0
63954;BME280;50128;52.094;5.232;2023-01-30T01:05:12;101528.0;;;7.57;100.0
63954;BME280;50128;52.094;5.232;2023-01-30T01:06:48;101517.0;;;7.54;100.0
63954;BME280;50128;52.094;5.232;2023-01-30T01:10:02;101502.0;;;7.56;100.0
63954;BME280;50128;52.094;5.232;2023-01-30T01:11:39;101492.0;;;7.61;100.0
63954;BME280;50128;52.094;5.232;2023-01-30T01:13:16;101489.0;;;7.59;100.0
63954;BME280;50128;52.094;5.232;2023-01-30T01:16:31;101485.0;;;7.57;100.0
63954;BME280;50128;52.094;5.232;2023-01-30T01:18:09;101483.0;;;7.55;100.0
63954;BME280;50128;52.094;5.232;2023-01-30T01:19:44;101490.0;;;7.59;100.0
63954;BME280;50128;52.094;5.232;2023-01-30T01:22:59;101482.0;;;7.55;100.0
63954;BME280;50128;52.094;5.232;2023-01-30T01:24:35;101475.0;;;7.51;100.0
63954;BME280;50128;52.094;5.232;2023-01-30T01:26:12;101472.0;;;7.6;100.0
63954;BME280;50128;52.094;5.232;2023-01-30T01:27:49;101471.0;;;7.62;100.0
63954;BME280;50128;52.094;5.232;2023-01-30T01:31:08;101471.0;;;7.63;100.0
63954;BME280;50128;52.094;5.232;2023-01-30T01:32:45;101471.0;;;7.63;100.0
63954;BME280;50128;52.094;5.232;2023-01-30T01:34:22;101466.0;;;7.64;100.0
63954;BME280;50128;52.094;5.232;2023-01-30T01:37:35;101463.0;;;7.66;100.0
63954;BME280;50128;52.094;5.232;2023-01-30T01:39:12;101452.0;;;7.62;100.0
63954;BME280;50128;52.094;5.232;2023-01-30T01:41:05;101448.0;;;7.67;100.0
63954;BME280;50128;52.094;5.232;2023-01-30T01:42:42;101451.0;;;7.71;100.0
63954;BME280;50128;52.094;5.232;2023-01-30T01:45:57;101457.0;;;7.76;100.0
63954;BME280;50128;52.094;5.232;2023-01-30T01:47:38;101462.0;;;7.77;100.0
63954;BME280;50128;52.094;5.232;2023-01-30T01:49:21;101457.0;;;7.82;100.0
63954;BME280;50128;52.094;5.232;2023-01-30T01:51:02;101463.0;;;7.88;100.0
63954;BME280;50128;52.094;5.232;2023-01-30T01:54:23;101466.0;;;7.9;100.0
63954;BME280;50128;52.094;5.232;2023-01-30T01:56:03;101460.0;;;7.89;100.0
63954;BME280;50128;52.094;5.232;2023-01-30T01:57:44;101453.0;;;7.86;100.0
63954;BME280;50128;52.094;5.232;2023-01-30T01:59:27;101459.0;;;7.85;100.0
63954;BME280;50128;52.094;5.232;2023-01-30T02:02:45;101461.0;;;7.79;100.0
63954;BME280;50128;52.094;5.232;2023-01-30T02:05:01;101448.0;;;7.78;100.0
63954;BME280;50128;52.094;5.232;2023-01-30T02:06:40;101448.0;;;7.8;100.0
63954;BME280;50128;52.094;5.232;2023-01-30T02:08:20;101442.0;;;7.82;100.0
63954;BME280;50128;52.094;5.232;2023-01-30T02:10:00;101450.0;;;7.8;100.0
63954;BME280;50128;52.094;5.232;2023-01-30T02:13:20;101448.0;;;7.7;100.0
63954;BME280;50128;52.094;5.232;2023-01-30T02:14:59;101451.0;;;7.69;100.0
63954;BME280;50128;52.094;5.232;2023-01-30T02:16:36;101458.0;;;7.63;100.0
63954;BME280;50128;52.094;5.232;2023-01-30T02:18:14;101457.0;;;7.65;100.0
63954;BME280;50128;52.094;5.232;2023-01-30T02:24:29;101453.0;;;7.66;100.0
63954;BME280;50128;52.094;5.232;2023-01-30T02:25:45;101448.0;;;7.58;100.0
63954;BME280;50128;52.094;5.232;2023-01-30T02:28:36;101449.0;;;7.61;100.0
63954;BME280;50128;52.094;5.232;2023-01-30T02:32:36;101444.0;;;7.47;100.0
63954;BME280;50128;52.094;5.232;2023-01-30T02:34:34;101448.0;;;7.56;100.0
63954;BME280;50128;52.094;5.232;2023-01-30T02:36:20;101450.0;;;7.55;100.0
63954;BME280;50128;52.094;5.232;2023-01-30T02:38:13;101441.0;;;7.48;100.0
63954;BME280;50128;52.094;5.232;2023-01-30T02:40:03;101435.0;;;7.42;100.0
63954;BME280;50128;52.094;5.232;2023-01-30T02:41:52;101440.0;;;7.47;100.0
63954;BME280;50128;52.094;5.232;2023-01-30T02:43:38;101437.0;;;7.45;100.0
63954;BME280;50128;52.094;5.232;2023-01-30T02:45:28;101437.0;;;7.48;100.0
63954;BME280;50128;52.094;5.232;2023-01-30T02:48:54;101430.0;;;7.47;100.0
63954;BME280;50128;52.094;5.232;2023-01-30T02:50:38;101428.0;;;7.46;100.0
63954;BME280;50128;52.094;5.232;2023-01-30T02:52:17;101435.0;;;7.42;100.0
63954;BME280;50128;52.094;5.232;2023-01-30T02:53:58;101434.0;;;7.44;100.0
63954;BME280;50128;52.094;5.232;2023-01-30T02:57:18;101432.0;;;7.52;100.0
63954;BME280;50128;52.094;5.232;2023-01-30T02:58:59;101439.0;;;7.57;100.0
63954;BME280;50128;52.094;5.232;2023-01-30T03:00:56;101439.0;;;7.53;100.0
63954;BME280;50128;52.094;5.232;2023-01-30T03:02:51;101433.0;;;7.56;100.0
63954;BME280;50128;52.094;5.232;2023-01-30T03:04:50;101423.0;;;7.54;100.0
63954;BME280;50128;52.094;5.232;2023-01-30T03:06:47;101423.0;;;7.53;100.0
63954;BME280;50128;52.094;5.232;2023-01-30T03:08:39;101423.0;;;7.52;100.0
63954;BME280;50128;52.094;5.232;2023-01-30T03:10:27;101423.0;;;7.53;100.0
63954;BME280;50128;52.094;5.232;2023-01-30T03:14:08;101420.0;;;7.48;100.0
63954;BME280;50128;52.094;5.232;2023-01-30T03:15:53;101421.0;;;7.45;100.0
63954;BME280;50128;52.094;5.232;2023-01-30T03:17:33;101415.0;;;7.49;100.0
63954;BME280;50128;52.094;5.232;2023-01-30T03:19:12;101411.0;;;7.51;100.0
63954;BME280;50128;52.094;5.232;2023-01-30T03:20:49;101411.0;;;7.59;100.0
63954;BME280;50128;52.094;5.232;2023-01-30T03:24:04;101412.0;;;7.63;100.0
63954;BME280;50128;52.094;5.232;2023-01-30T03:25:42;101414.0;;;7.65;100.0
63954;BME280;50128;52.094;5.232;2023-01-30T03:27:21;101414.0;;;7.69;100.0
63954;BME280;50128;52.094;5.232;2023-01-30T03:30:37;101410.0;;;7.68;100.0
63954;BME280;50128;52.094;5.232;2023-01-30T03:32:14;101399.0;;;7.65;100.0
63954;BME280;50128;52.094;5.232;2023-01-30T03:33:51;101403.0;;;7.58;100.0
63954;BME280;50128;52.094;5.232;2023-01-30T03:35:28;101399.0;;;7.58;100.0
63954;BME280;50128;52.094;5.232;2023-01-30T03:38:42;101391.0;;;7.69;100.0
63954;BME280;50128;52.094;5.232;2023-01-30T03:40:18;101392.0;;;7.67;100.0
63954;BME280;50128;52.094;5.232;2023-01-30T03:41:56;101398.0;;;7.66;100.0
63954;BME280;50128;52.094;5.232;2023-01-30T03:45:10;101400.0;;;7.75;100.0
63954;BME280;50128;52.094;5.232;2023-01-30T03:46:47;101405.0;;;7.76;100.0
63954;BME280;50128;52.094;5.232;2023-01-30T03:48:23;101395.0;;;7.76;100.0
63954;BME280;50128;52.094;5.232;2023-01-30T03:49:59;101396.0;;;7.9;100.0
63954;BME280;50128;52.094;5.232;2023-01-30T03:53:13;101400.0;;;7.89;100.0
63954;BME280;50128;52.094;5.232;2023-01-30T03:54:50;101396.0;;;7.89;100.0
63954;BME280;50128;52.094;5.232;2023-01-30T03:56:27;101403.0;;;7.97;100.0
63954;BME280;50128;52.094;5.232;2023-01-30T03:59:41;101409.0;;;7.92;100.0
63954;BME280;50128;52.094;5.232;2023-01-30T04:01:18;101405.0;;;7.94;100.0
63954;BME280;50128;52.094;5.232;2023-01-30T04:02:56;101400.0;;;7.89;100.0
63954;BME280;50128;52.094;5.232;2023-01-30T04:06:10;101396.0;;;7.82;100.0
63954;BME280;50128;52.094;5.232;2023-01-30T04:07:47;101389.0;;;7.81;100.0
63954;BME280;50128;52.094;5.232;2023-01-30T04:09:24;101398.0;;;7.78;100.0
63954;BME280;50128;52.094;5.232;2023-01-30T04:11:01;101400.0;;;7.89;100.0
63954;BME280;50128;52.094;5.232;2023-01-30T04:14:15;101398.0;;;7.87;100.0
63954;BME280;50128;52.094;5.232;2023-01-30T04:15:52;101403.0;;;7.89;100.0
63954;BME280;50128;52.094;5.232;2023-01-30T04:17:50;101407.0;;;7.99;100.0
63954;BME280;50128;52.094;5.232;2023-01-30T04:19:27;101393.0;;;7.98;100.0
63954;BME280;50128;52.094;5.232;2023-01-30T04:22:41;101397.0;;;7.99;100.0
63954;BME280;50128;52.094;5.232;2023-01-30T04:24:18;101400.0;;;8.01;100.0
63954;BME280;50128;52.094;5.232;2023-01-30T04:25:55;101410.0;;;8.08;100.0
63954;BME280;50128;52.094;5.232;2023-01-30T04:29:09;101410.0;;;8.14;100.0
63954;BME280;50128;52.094;5.232;2023-01-30T04:30:46;101401.0;;;8.06;100.0
63954;BME280;50128;52.094;5.232;2023-01-30T04:32:24;101415.0;;;8.08;100.0
63954;BME280;50128;52.094;5.232;2023-01-30T04:34:01;101411.0;;;8.13;100.0
63954;BME280;50128;52.094;5.232;2023-01-30T04:37:15;101419.0;;;8.09;100.0
63954;BME280;50128;52.094;5.232;2023-01-30T04:38:52;101414.0;;;8.06;100.0
63954;BME280;50128;52.094;5.232;2023-01-30T04:40:28;101419.0;;;8.08;100.0
63954;BME280;50128;52.094;5.232;2023-01-30T04:43:41;101422.0;;;8.08;100.0
63954;BME280;50128;52.094;5.232;2023-01-30T04:45:18;101421.0;;;8.02;100.0
63954;BME280;50128;52.094;5.232;2023-01-30T04:46:55;101413.0;;;8.08;100.0
63954;BME280;50128;52.094;5.232;2023-01-30T04:50:10;101423.0;;;8.11;100.0
63954;BME280;50128;52.094;5.232;2023-01-30T04:51:47;101426.0;;;8.1;100.0
63954;BME280;50128;52.094;5.232;2023-01-30T04:53:24;101425.0;;;8.17;100.0
63954;BME280;50128;52.094;5.232;2023-01-30T04:55:01;101420.0;;;8.19;100.0
63954;BME280;50128;52.094;5.232;2023-01-30T04:58:15;101426.0;;;8.06;100.0
63954;BME280;50128;52.094;5.232;2023-01-30T04:59:53;101419.0;;;8.05;100.0
63954;BME280;50128;52.094;5.232;2023-01-30T05:01:32;101419.0;;;8.03;100.0
63954;BME280;50128;52.094;5.232;2023-01-30T05:04:48;101413.0;;;8.1;100.0
63954;BME280;50128;52.094;5.232;2023-01-30T05:06:25;101412.0;;;8.11;100.0
63954;BME280;50128;52.094;5.232;2023-01-30T05:08:02;101410.0;;;8.1;100.0
63954;BME280;50128;52.094;5.232;2023-01-30T05:09:39;101417.0;;;8.07;99.41
63954;BME280;50128;52.094;5.232;2023-01-30T05:12:53;101419.0;;;8.11;99.08
63954;BME280;50128;52.094;5.232;2023-01-30T05:14:30;101414.0;;;8.1;99.27
63954;BME280;50128;52.094;5.232;2023-01-30T05:16:07;101415.0;;;8.1;98.44
63954;BME280;50128;52.094;5.232;2023-01-30T05:19:21;101424.0;;;8.14;98.4
63954;BME280;50128;52.094;5.232;2023-01-30T05:21:02;101425.0;;;8.16;98.57
63954;BME280;50128;52.094;5.232;2023-01-30T05:22:41;101426.0;;;8.13;98.52
63954;BME280;50128;52.094;5.232;2023-01-30T05:24:18;101427.0;;;8.09;98.66
63954;BME280;50128;52.094;5.232;2023-01-30T05:27:32;101423.0;;;8.16;98.3
63954;BME280;50128;52.094;5.232;2023-01-30T05:29:09;101423.0;;;8.06;98.47
63954;BME280;50128;52.094;5.232;2023-01-30T05:30:46;101430.0;;;8.07;98.02
63954;BME280;50128;52.094;5.232;2023-01-30T05:34:03;101433.0;;;8.08;98.3
63954;BME280;50128;52.094;5.232;2023-01-30T05:35:45;101441.0;;;8.15;98.03
63954;BME280;50128;52.094;5.232;2023-01-30T05:37:23;101433.0;;;8.13;97.13
63954;BME280;50128;52.094;5.232;2023-01-30T05:39:00;101428.0;;;8.07;97.48
63954;BME280;50128;52.094;5.232;2023-01-30T05:42:14;101441.0;;;8.14;96.66
63954;BME280;50128;52.094;5.232;2023-01-30T05:43:50;101445.0;;;8.16;96.04
63954;BME280;50128;52.094;5.232;2023-01-30T05:45:27;101450.0;;;8.07;95.94
63954;BME280;50128;52.094;5.232;2023-01-30T05:48:42;101469.0;;;8.09;95.82
63954;BME280;50128;52.094;5.232;2023-01-30T05:50:19;101448.0;;;8.01;95.81
63954;BME280;50128;52.094;5.232;2023-01-30T05:51:56;101433.0;;;8.0;95.39
63954;BME280;50128;52.094;5.232;2023-01-30T05:53:34;101439.0;;;7.87;94.89
63954;BME280;50128;52.094;5.232;2023-01-30T05:56:48;101439.0;;;7.85;95.16
63954;BME280;50128;52.094;5.232;2023-01-30T05:58:25;101441.0;;;7.77;95.04
63954;BME280;50128;52.094;5.232;2023-01-30T06:00:03;101436.0;;;7.74;95.04
63954;BME280;50128;52.094;5.232;2023-01-30T06:03:19;101436.0;;;7.71;94.63
63954;BME280;50128;52.094;5.232;2023-01-30T06:04:56;101436.0;;;7.6;93.95
63954;BME280;50128;52.094;5.232;2023-01-30T06:06:33;101447.0;;;7.67;93.72
63954;BME280;50128;52.094;5.232;2023-01-30T06:08:10;101449.0;;;7.64;92.99
63954;BME280;50128;52.094;5.232;2023-01-30T06:11:24;101448.0;;;7.61;93.07
63954;BME280;50128;52.094;5.232;2023-01-30T06:13:01;101457.0;;;7.54;93.45
63954;BME280;50128;52.094;5.232;2023-01-30T06:14:38;101450.0;;;7.45;91.92
63954;BME280;50128;52.094;5.232;2023-01-30T06:17:54;101455.0;;;7.46;92.11
63954;BME280;50128;52.094;5.232;2023-01-30T06:19:31;101458.0;;;7.45;91.57
63954;BME280;50128;52.094;5.232;2023-01-30T06:21:08;101452.0;;;7.31;91.37
63954;BME280;50128;52.094;5.232;2023-01-30T06:22:47;101462.0;;;7.27;91.48
63954;BME280;50128;52.094;5.232;2023-01-30T06:26:01;101478.0;;;7.26;91.16
63954;BME280;50128;52.094;5.232;2023-01-30T06:27:38;101477.0;;;7.29;91.04
63954;BME280;50128;52.094;5.232;2023-01-30T06:29:15;101467.0;;;7.22;91.38
63954;BME280;50128;52.094;5.232;2023-01-30T06:32:29;101467.0;;;7.24;91.49
63954;BME280;50128;52.094;5.232;2023-01-30T06:34:06;101466.0;;;7.11;91.32
63954;BME280;50128;52.094;5.232;2023-01-30T06:35:44;101460.0;;;7.02;91.84
63954;BME280;50128;52.094;5.232;2023-01-30T06:37:24;101457.0;;;7.01;91.49
63954;BME280;50128;52.094;5.232;2023-01-30T06:40:39;101465.0;;;6.95;92.16
63954;BME280;50128;52.094;5.232;2023-01-30T06:42:16;101469.0;;;7.02;92.01
63954;BME280;50128;52.094;5.232;2023-01-30T06:43:54;101462.0;;;6.99;91.85
63954;BME280;50128;52.094;5.232;2023-01-30T06:47:07;101456.0;;;6.91;92.2
63954;BME280;50128;52.094;5.232;2023-01-30T06:48:44;101455.0;;;6.83;92.46
63954;BME280;50128;52.094;5.232;2023-01-30T06:50:23;101456.0;;;6.74;92.74
63954;BME280;50128;52.094;5.232;2023-01-30T06:52:01;101463.0;;;6.82;92.66
63954;BME280;50128;52.094;5.232;2023-01-30T06:55:16;101468.0;;;6.88;92.1
63954;BME280;50128;52.094;5.232;2023-01-30T06:56:55;101478.0;;;6.85;91.32
63954;BME280;50128;52.094;5.232;2023-01-30T06:58:32;101484.0;;;6.72;91.0
63954;BME280;50128;52.094;5.232;2023-01-30T07:01:49;101476.0;;;6.84;90.28
63954;BME280;50128;52.094;5.232;2023-01-30T07:03:27;101488.0;;;6.89;89.45
63954;BME280;50128;52.094;5.232;2023-01-30T07:05:06;101485.0;;;6.89;89.03
63954;BME280;50128;52.094;5.232;2023-01-30T07:06:45;101496.0;;;6.8;88.65
63954;BME280;50128;52.094;5.232;2023-01-30T07:09:59;101506.0;;;6.77;89.25
63954;BME280;50128;52.094;5.232;2023-01-30T07:11:36;101507.0;;;6.7;87.83
63954;BME280;50128;52.094;5.232;2023-01-30T07:13:13;101501.0;;;6.81;87.2
63954;BME280;50128;52.094;5.232;2023-01-30T07:16:28;101511.0;;;6.85;87.41
63954;BME280;50128;52.094;5.232;2023-01-30T07:18:06;101518.0;;;6.78;87.24
63954;BME280;50128;52.094;5.232;2023-01-30T07:19:43;101530.0;;;6.85;86.28
63954;BME280;50128;52.094;5.232;2023-01-30T07:21:21;101524.0;;;6.8;85.77
63954;BME280;50128;52.094;5.232;2023-01-30T07:24:36;101520.0;;;6.78;86.13
63954;BME280;50128;52.094;5.232;2023-01-30T07:26:13;101526.0;;;6.66;86.74
63954;BME280;50128;52.094;5.232;2023-01-30T07:27:51;101523.0;;;6.64;86.22
63954;BME280;50128;52.094;5.232;2023-01-30T07:31:04;101514.0;;;6.6;85.67
63954;BME280;50128;52.094;5.232;2023-01-30T07:32:41;101524.0;;;6.67;85.88
63954;BME280;50128;52.094;5.232;2023-01-30T07:34:18;101522.0;;;6.65;85.31
63954;BME280;50128;52.094;5.232;2023-01-30T07:35:55;101527.0;;;6.71;84.85
63954;BME280;50128;52.094;5.232;2023-01-30T07:39:10;101522.0;;;6.73;84.47
63954;BME280;50128;52.094;5.232;2023-01-30T07:40:47;101521.0;;;6.67;84.69
63954;BME280;50128;52.094;5.232;2023-01-30T07:42:24;101527.0;;;6.69;84.47
63954;BME280;50128;52.094;5.232;2023-01-30T07:45:39;101534.0;;;6.7;84.78
63954;BME280;50128;52.094;5.232;2023-01-30T07:47:19;101542.0;;;6.75;85.07
63954;BME280;50128;52.094;5.232;2023-01-30T07:48:54;101540.0;;;6.64;84.85
63954;BME280;50128;52.094;5.232;2023-01-30T07:52:09;101539.0;;;6.68;85.14
63954;BME280;50128;52.094;5.232;2023-01-30T07:53:48;101539.0;;;6.74;84.9
63954;BME280;50128;52.094;5.232;2023-01-30T07:55:25;101531.0;;;6.74;85.15
63954;BME280;50128;52.094;5.232;2023-01-30T07:57:02;101522.0;;;6.64;85.59
63954;BME280;50128;52.094;5.232;2023-01-30T08:00:17;101550.0;;;6.66;85.38
63954;BME280;50128;52.094;5.232;2023-01-30T08:01:57;101538.0;;;6.65;85.6
63954;BME280;50128;52.094;5.232;2023-01-30T08:03:34;101541.0;;;6.7;85.48
63954;BME280;50128;52.094;5.232;2023-01-30T08:06:48;101553.0;;;6.68;85.43
63954;BME280;50128;52.094;5.232;2023-01-30T08:08:25;101542.0;;;6.8;85.12
63954;BME280;50128;52.094;5.232;2023-01-30T08:10:03;101539.0;;;6.76;85.09
63954;BME280;50128;52.094;5.232;2023-01-30T08:11:40;101530.0;;;6.82;85.49
63954;BME280;50128;52.094;5.232;2023-01-30T08:14:54;101542.0;;;6.8;85.41
63954;BME280;50128;52.094;5.232;2023-01-30T08:16:33;101535.0;;;6.82;85.79
63954;BME280;50128;52.094;5.232;2023-01-30T08:18:09;101534.0;;;6.82;85.76
63954;BME280;50128;52.094;5.232;2023-01-30T08:21:23;101533.0;;;6.91;85.34
63954;BME280;50128;52.094;5.232;2023-01-30T08:23:01;101555.0;;;6.87;85.4
63954;BME280;50128;52.094;5.232;2023-01-30T08:24:37;101547.0;;;6.93;85.31
63954;BME280;50128;52.094;5.232;2023-01-30T08:26:14;101552.0;;;6.95;85.01
63954;BME280;50128;52.094;5.232;2023-01-30T08:29:28;101555.0;;;6.99;84.62
63954;BME280;50128;52.094;5.232;2023-01-30T08:31:08;101548.0;;;7.05;83.98
63954;BME280;50128;52.094;5.232;2023-01-30T08:32:45;101557.0;;;7.13;83.99
63954;BME280;50128;52.094;5.232;2023-01-30T08:35:59;101560.0;;;7.2;83.71
63954;BME280;50128;52.094;5.232;2023-01-30T08:37:38;101570.0;;;7.17;83.21
63954;BME280;50128;52.094;5.232;2023-01-30T08:39:14;101580.0;;;7.28;83.04
63954;BME280;50128;52.094;5.232;2023-01-30T08:40:50;101583.0;;;7.28;82.53
63954;BME280;50128;52.094;5.232;2023-01-30T08:44:20;101594.0;;;7.38;82.88
63954;BME280;50128;52.094;5.232;2023-01-30T08:45:58;101584.0;;;7.36;82.09
63954;BME280;50128;52.094;5.232;2023-01-30T08:47:34;101597.0;;;7.37;82.64
63954;BME280;50128;52.094;5.232;2023-01-30T08:49:12;101602.0;;;7.38;82.36
63954;BME280;50128;52.094;5.232;2023-01-30T08:52:27;101609.0;;;7.51;82.72
63954;BME280;50128;52.094;5.232;2023-01-30T08:54:03;101601.0;;;7.49;81.49
63954;BME280;50128;52.094;5.232;2023-01-30T08:55:43;101603.0;;;7.48;81.77
63954;BME280;50128;52.094;5.232;2023-01-30T08:58:56;101603.0;;;7.49;81.88
63954;BME280;50128;52.094;5.232;2023-01-30T09:00:33;101605.0;;;7.43;81.66
63954;BME280;50128;52.094;5.232;2023-01-30T09:02:11;101612.0;;;7.43;81.88
63954;BME280;50128;52.094;5.232;2023-01-30T09:03:48;101611.0;;;7.4;82.07
63954;BME280;50128;52.094;5.232;2023-01-30T09:07:02;101617.0;;;7.36;82.85
63954;BME280;50128;52.094;5.232;2023-01-30T09:08:39;101613.0;;;7.4;81.99
63954;BME280;50128;52.094;5.232;2023-01-30T09:10:16;101619.0;;;7.43;83.81
63954;BME280;50128;52.094;5.232;2023-01-30T09:13:31;101619.0;;;7.45;82.93
63954;BME280;50128;52.094;5.232;2023-01-30T09:15:09;101631.0;;;7.48;82.64
63954;BME280;50128;52.094;5.232;2023-01-30T09:16:47;101611.0;;;7.46;83.11
63954;BME280;50128;52.094;5.232;2023-01-30T09:18:24;101617.0;;;7.42;83.08
63954;BME280;50128;52.094;5.232;2023-01-30T09:21:40;101620.0;;;7.51;82.44
63954;BME280;50128;52.094;5.232;2023-01-30T09:23:17;101618.0;;;7.57;82.78
63954;BME280;50128;52.094;5.232;2023-01-30T09:24:54;101627.0;;;7.65;82.06
63954;BME280;50128;52.094;5.232;2023-01-30T09:28:07;101635.0;;;7.58;82.18
63954;BME280;50128;52.094;5.232;2023-01-30T09:29:44;101633.0;;;7.65;81.8
63954;BME280;50128;52.094;5.232;2023-01-30T09:31:21;101638.0;;;7.58;81.8
63954;BME280;50128;52.094;5.232;2023-01-30T09:34:35;101627.0;;;7.55;81.38
63954;BME280;50128;52.094;5.232;2023-01-30T09:36:13;101632.0;;;7.61;81.49
63954;BME280;50128;52.094;5.232;2023-01-30T09:37:52;101653.0;;;7.66;80.59
63954;BME280;50128;52.094;5.232;2023-01-30T09:39:29;101639.0;;;7.74;81.69
63954;BME280;50128;52.094;5.232;2023-01-30T09:43:40;101646.0;;;7.69;80.72
63954;BME280;50128;52.094;5.232;2023-01-30T09:45:31;101643.0;;;7.78;80.69
63954;BME280;50128;52.094;5.232;2023-01-30T09:47:26;101657.0;;;7.79;79.91
63954;BME280;50128;52.094;5.232;2023-01-30T09:49:16;101652.0;;;7.83;80.59
63954;BME280;50128;52.094;5.232;2023-01-30T09:51:32;101655.0;;;7.81;79.53
63954;BME280;50128;52.094;5.232;2023-01-30T09:53:18;101655.0;;;7.78;80.02
63954;BME280;50128;52.094;5.232;2023-01-30T09:55:13;101663.0;;;7.8;80.22
63954;BME280;50128;52.094;5.232;2023-01-30T09:56:57;101667.0;;;7.85;80.88
63954;BME280;50128;52.094;5.232;2023-01-30T09:58:46;101653.0;;;7.82;80.66
63954;BME280;50128;52.094;5.232;2023-01-30T10:00:31;101672.0;;;7.76;80.62
63954;BME280;50128;52.094;5.232;2023-01-30T10:04:19;101666.0;;;7.84;81.0
63954;BME280;50128;52.094;5.232;2023-01-30T10:06:04;101673.0;;;7.75;80.45
63954;BME280;50128;52.094;5.232;2023-01-30T10:07:59;101669.0;;;7.78;80.27
63954;BME280;50128;52.094;5.232;2023-01-30T10:09:43;101667.0;;;7.87;80.95
63954;BME280;50128;52.094;5.232;2023-01-30T10:11:36;101658.0;;;7.81;80.56
63954;BME280;50128;52.094;5.232;2023-01-30T10:13:32;101659.0;;;7.8;80.38
63954;BME280;50128;52.094;5.232;2023-01-30T10:15:21;101675.0;;;7.94;80.44
63954;BME280;50128;52.094;5.232;2023-01-30T10:17:17;101674.0;;;7.91;79.94
63954;BME280;50128;52.094;5.232;2023-01-30T10:19:16;101686.0;;;7.94;79.34
63954;BME280;50128;52.094;5.232;2023-01-30T10:21:22;101698.0;;;7.92;79.37
63954;BME280;50128;52.094;5.232;2023-01-30T10:25:31;101695.0;;;7.92;80.49
63954;BME280;50128;52.094;5.232;2023-01-30T10:28:56;101700.0;;;8.05;80.19
63954;BME280;50128;52.094;5.232;2023-01-30T10:30:35;101700.0;;;8.17;79.11
63954;BME280;50128;52.094;5.232;2023-01-30T10:32:14;101705.0;;;8.16;80.05
63954;BME280;50128;52.094;5.232;2023-01-30T10:33:57;101707.0;;;8.15;79.36
63954;BME280;50128;52.094;5.232;2023-01-30T10:37:22;101707.0;;;8.14;78.94
63954;BME280;50128;52.094;5.232;2023-01-30T10:39:03;101710.0;;;8.06;78.77
63954;BME280;50128;52.094;5.232;2023-01-30T10:41:00;101703.0;;;7.96;79.75
63954;BME280;50128;52.094;5.232;2023-01-30T10:42:47;101703.0;;;7.94;79.53
63954;BME280;50128;52.094;5.232;2023-01-30T10:44:27;101712.0;;;7.92;78.72
63954;BME280;50128;52.094;5.232;2023-01-30T10:48:17;101707.0;;;8.0;79.44
63954;BME280;50128;52.094;5.232;2023-01-30T10:50:16;101702.0;;;7.97;78.84
63954;BME280;50128;52.094;5.232;2023-01-30T10:51:59;101715.0;;;8.03;78.94
63954;BME280;50128;52.094;5.232;2023-01-30T10:53:52;101715.0;;;8.05;79.27
63954;BME280;50128;52.094;5.232;2023-01-30T10:55:34;101708.0;;;8.03;78.98
63954;BME280;50128;52.094;5.232;2023-01-30T10:57:21;101710.0;;;8.08;79.12
63954;BME280;50128;52.094;5.232;2023-01-30T10:59:20;101711.0;;;8.14;79.24
63954;BME280;50128;52.094;5.232;2023-01-30T11:00:59;101703.0;;;8.06;78.67
63954;BME280;50128;52.094;5.232;2023-01-30T11:04:43;101707.0;;;8.05;78.33
63954;BME280;50128;52.094;5.232;2023-01-30T11:06:25;101695.0;;;8.08;78.53
63954;BME280;50128;52.094;5.232;2023-01-30T11:08:02;101705.0;;;8.0;78.77
63954;BME280;50128;52.094;5.232;2023-01-30T11:09:40;101698.0;;;8.23;78.59
63954;BME280;50128;52.094;5.232;2023-01-30T11:13:12;101700.0;;;8.31;77.45
63954;BME280;50128;52.094;5.232;2023-01-30T11:14:55;101700.0;;;8.42;77.89
63954;BME280;50128;52.094;5.232;2023-01-30T11:16:33;101713.0;;;8.49;77.47
63954;BME280;50128;52.094;5.232;2023-01-30T11:18:20;101708.0;;;8.56;77.36
63954;BME280;50128;52.094;5.232;2023-01-30T11:20:03;101717.0;;;8.57;76.98
63954;BME280;50128;52.094;5.232;2023-01-30T11:23:30;101716.0;;;8.58;76.72
63954;BME280;50128;52.094;5.232;2023-01-30T11:25:13;101718.0;;;8.73;76.58